Time;durP1;ratioP1;P1;durP2;ratioP2;P2;SDS_P1;SDS_P2;PMS_P1;PMS_P2;Temp;Humidity;BMP_temperature;BMP_pressure;BME280_temperature;BME280_humidity;BME280_pressure;Samples;Min_cycle;Max_cycle;Signal;HPM_P1;HPM_P2
2021/03/01 00:01:07;;;;;;;6.30;3.20;;;16.20;44.10;;;;;;5094606;28;20024;-64
2021/03/01 00:03:33;;;;;;;7.63;3.40;;;16.20;44.20;;;;;;5093228;28;20491;-64
2021/03/01 00:05:59;;;;;;;5.35;2.95;;;16.20;44.10;;;;;;5094250;28;20062;-64
2021/03/01 00:08:25;;;;;;;6.75;3.33;;;16.20;44.20;;;;;;5094574;28;20029;-64
2021/03/01 00:10:50;;;;;;;6.72;3.15;;;16.20;44.10;;;;;;5093984;28;20035;-63
2021/03/01 00:13:16;;;;;;;6.90;3.40;;;16.20;44.10;;;;;;5094190;28;20031;-63
2021/03/01 00:15:42;;;;;;;7.60;3.75;;;16.20;44.20;;;;;;5094040;28;20059;-64
2021/03/01 00:18:08;;;;;;;6.90;3.38;;;16.20;44.20;;;;;;5094069;28;20055;-64
2021/03/01 00:20:33;;;;;;;6.10;3.10;;;16.20;44.30;;;;;;5093934;28;20036;-64
2021/03/01 00:22:59;;;;;;;6.53;3.42;;;16.20;44.20;;;;;;5092726;28;20027;-64
2021/03/01 00:25:25;;;;;;;6.57;3.17;;;16.20;44.20;;;;;;5093906;28;20383;-64
2021/03/01 00:27:50;;;;;;;8.07;3.63;;;16.20;44.20;;;;;;5093787;28;20028;-64
2021/03/01 00:30:16;;;;;;;6.60;3.42;;;16.20;44.20;;;;;;5094011;28;20028;-64
2021/03/01 00:32:42;;;;;;;6.80;3.30;;;16.20;44.10;;;;;;5094043;28;20024;-64
2021/03/01 00:35:08;;;;;;;7.75;4.30;;;16.20;44.20;;;;;;5094197;28;20361;-64
2021/03/01 00:37:34;;;;;;;6.65;3.65;;;16.20;44.10;;;;;;5093950;28;20019;-64
2021/03/01 00:40:00;;;;;;;6.75;3.30;;;16.20;44.10;;;;;;5093565;28;20115;-64
2021/03/01 00:42:26;;;;;;;7.50;3.80;;;16.20;44.20;;;;;;5094106;28;20357;-64
2021/03/01 00:44:51;;;;;;;7.97;3.78;;;16.20;44.10;;;;;;5094207;28;20027;-64
2021/03/01 00:47:17;;;;;;;8.52;3.25;;;16.20;44.10;;;;;;5094122;28;20028;-64
2021/03/01 00:49:43;;;;;;;8.48;3.55;;;16.20;44.20;;;;;;5098610;28;20035;-64
2021/03/01 00:52:10;;;;;;;6.50;3.58;;;16.20;44.20;;;;;;5100369;28;20071;-64
2021/03/01 00:54:35;;;;;;;6.95;3.55;;;16.20;44.20;;;;;;5093202;28;20107;-64
2021/03/01 00:57:01;;;;;;;7.60;3.38;;;16.20;44.20;;;;;;5093946;28;20055;-64
2021/03/01 00:59:28;;;;;;;5.60;2.80;;;16.20;44.20;;;;;;5092240;28;20040;-64
2021/03/01 01:01:54;;;;;;;6.45;3.30;;;16.20;44.20;;;;;;5093719;28;20024;-64
2021/03/01 01:04:20;;;;;;;6.35;3.15;;;16.20;44.20;;;;;;5093780;28;20028;-64
2021/03/01 01:06:45;;;;;;;8.30;3.75;;;16.20;44.20;;;;;;5094033;28;20024;-64
2021/03/01 01:09:11;;;;;;;8.73;3.55;;;16.20;44.20;;;;;;5096740;28;20027;-64
2021/03/01 01:11:36;;;;;;;5.88;3.08;;;16.20;44.20;;;;;;5098041;28;20024;-64
2021/03/01 01:14:02;;;;;;;8.70;3.88;;;16.10;44.10;;;;;;5097933;28;20020;-64
2021/03/01 01:16:27;;;;;;;6.95;3.92;;;16.10;44.10;;;;;;5097670;28;20028;-64
2021/03/01 01:18:53;;;;;;;7.82;3.83;;;16.10;44.10;;;;;;5097169;28;20040;-64
2021/03/01 01:21:18;;;;;;;7.78;4.20;;;16.10;44.10;;;;;;5095818;28;20522;-64
2021/03/01 01:23:44;;;;;;;7.03;3.80;;;16.20;44.10;;;;;;5096838;28;20021;-64
2021/03/01 01:26:09;;;;;;;9.15;4.22;;;16.10;44.10;;;;;;5097456;28;20020;-64
2021/03/01 01:28:35;;;;;;;8.55;3.75;;;16.10;44.10;;;;;;5097403;28;20024;-64
2021/03/01 01:31:01;;;;;;;8.18;4.10;;;16.20;44.10;;;;;;5097453;28;20099;-64
2021/03/01 01:33:26;;;;;;;7.80;3.58;;;16.10;44.20;;;;;;5097395;28;20024;-64
2021/03/01 01:35:52;;;;;;;8.57;3.85;;;16.10;44.20;;;;;;5097361;28;20468;-64
2021/03/01 01:38:17;;;;;;;8.57;4.15;;;16.10;44.20;;;;;;5096980;28;20079;-64
2021/03/01 01:40:43;;;;;;;8.65;3.88;;;16.20;44.20;;;;;;5096951;28;20040;-64
2021/03/01 01:43:08;;;;;;;9.70;4.40;;;16.20;44.20;;;;;;5096632;28;20055;-64
2021/03/01 01:45:34;;;;;;;9.63;4.00;;;16.10;44.20;;;;;;5097010;28;20085;-64
2021/03/01 01:47:59;;;;;;;8.13;4.22;;;16.20;44.20;;;;;;5096851;28;20478;-64
2021/03/01 01:50:27;;;;;;;9.52;4.18;;;16.10;44.20;;;;;;5097183;28;20024;-64
2021/03/01 01:52:55;;;;;;;8.80;4.40;;;16.20;44.10;;;;;;5096979;28;20024;-64
2021/03/01 01:55:22;;;;;;;8.55;4.15;;;16.10;44.10;;;;;;5096971;28;20059;-64
2021/03/01 01:57:48;;;;;;;9.73;4.57;;;16.10;44.10;;;;;;5097052;28;20024;-64
2021/03/01 02:01:00;;;;;;;8.95;5.03;;;16.10;44.10;;;;;;5096517;28;20058;-64
2021/03/01 02:03:43;;;;;;;8.13;4.68;;;16.10;44.20;;;;;;5093076;28;20031;-64
2021/03/01 02:06:30;;;;;;;8.15;3.95;;;16.10;44.20;;;;;;5096151;28;20026;-64
2021/03/01 02:09:06;;;;;;;9.63;5.10;;;16.10;44.10;;;;;;5096121;28;20433;-64
2021/03/01 02:12:05;;;;;;;10.77;5.03;;;16.10;44.10;;;;;;5096488;28;20027;-64
2021/03/01 02:14:41;;;;;;;11.10;5.15;;;16.10;44.10;;;;;;5096360;28;20400;-64
2021/03/01 02:17:07;;;;;;;9.48;4.43;;;16.10;44.10;;;;;;5095920;28;20038;-64
2021/03/01 02:19:36;;;;;;;10.63;4.38;;;16.10;44.10;;;;;;5094993;28;20103;-64
2021/03/01 02:22:01;;;;;;;10.95;4.72;;;16.10;44.10;;;;;;5096232;28;20525;-64
2021/03/01 02:24:35;;;;;;;8.13;4.70;;;16.10;44.20;;;;;;5096225;28;20032;-64
2021/03/01 02:27:01;;;;;;;8.50;4.55;;;16.10;44.20;;;;;;5096108;28;20027;-64
2021/03/01 02:29:28;;;;;;;8.68;4.53;;;16.10;44.20;;;;;;5095936;28;20024;-64
2021/03/01 02:31:59;;;;;;;8.90;4.53;;;16.10;44.20;;;;;;5096159;28;20084;-64
2021/03/01 02:34:29;;;;;;;10.27;5.00;;;16.10;44.20;;;;;;5096195;28;20048;-64
2021/03/01 02:36:59;;;;;;;8.52;4.47;;;16.10;44.10;;;;;;5095897;28;20028;-64
2021/03/01 02:39:27;;;;;;;9.85;4.55;;;16.10;44.20;;;;;;5096133;28;20020;-64
2021/03/01 02:41:54;;;;;;;9.05;4.95;;;16.10;44.20;;;;;;5096261;28;20035;-64
2021/03/01 02:44:20;;;;;;;10.32;4.65;;;16.10;44.20;;;;;;5096068;28;20115;-64
2021/03/01 02:46:47;;;;;;;9.48;5.00;;;16.10;44.20;;;;;;5095747;28;20036;-64
2021/03/01 02:49:14;;;;;;;10.18;4.97;;;16.10;44.20;;;;;;5095850;28;20028;-64
2021/03/01 02:51:41;;;;;;;8.98;5.07;;;16.10;44.20;;;;;;5095730;28;20073;-64
2021/03/01 02:54:07;;;;;;;10.15;5.38;;;16.10;44.20;;;;;;5095897;28;20048;-65
2021/03/01 02:56:33;;;;;;;11.73;6.03;;;16.10;44.10;;;;;;5095765;28;20490;-65
2021/03/01 02:59:00;;;;;;;11.38;5.63;;;16.10;44.20;;;;;;5095115;28;20111;-64
2021/03/01 03:01:26;;;;;;;10.38;5.50;;;16.10;44.10;;;;;;5096129;28;20099;-64
2021/03/01 03:03:54;;;;;;;10.65;6.03;;;16.10;44.20;;;;;;5095409;28;20024;-64
2021/03/01 03:06:23;;;;;;;11.25;5.90;;;16.10;44.20;;;;;;5096056;28;20034;-64
2021/03/01 03:08:51;;;;;;;13.45;6.55;;;16.10;44.20;;;;;;5096169;28;20112;-64
2021/03/01 03:11:24;;;;;;;11.65;5.93;;;16.10;44.10;;;;;;5095397;28;20028;-64
2021/03/01 03:13:50;;;;;;;10.20;5.68;;;16.10;44.10;;;;;;5095743;28;20039;-64
2021/03/01 03:16:17;;;;;;;12.13;6.47;;;16.10;44.10;;;;;;5095919;28;20031;-64
2021/03/01 03:18:44;;;;;;;11.93;6.63;;;16.10;44.10;;;;;;5100679;28;20051;-64
2021/03/01 03:21:11;;;;;;;11.57;6.38;;;16.10;44.10;;;;;;5097563;28;20032;-64
2021/03/01 03:23:37;;;;;;;11.70;5.70;;;16.10;44.10;;;;;;5095583;28;20372;-64
2021/03/01 03:26:02;;;;;;;12.70;6.65;;;16.10;44.10;;;;;;5095087;28;20039;-64
2021/03/01 03:28:28;;;;;;;10.45;5.85;;;16.10;44.20;;;;;;5094811;28;20020;-64
2021/03/01 03:30:53;;;;;;;12.52;6.32;;;16.10;44.10;;;;;;5094872;28;20040;-64
2021/03/01 03:33:19;;;;;;;10.85;6.50;;;16.10;44.10;;;;;;5093786;28;20440;-64
2021/03/01 03:35:45;;;;;;;11.65;6.50;;;16.10;44.20;;;;;;5094972;28;20073;-64
2021/03/01 03:38:17;;;;;;;12.80;7.07;;;16.10;44.10;;;;;;5094935;28;20353;-64
2021/03/01 03:40:46;;;;;;;10.73;6.10;;;16.10;44.10;;;;;;5094821;28;20085;-64
2021/03/01 03:43:13;;;;;;;11.55;6.53;;;16.10;44.20;;;;;;5094359;28;20024;-64
2021/03/01 03:45:39;;;;;;;10.95;6.30;;;16.10;44.10;;;;;;5094463;28;20348;-64
2021/03/01 03:48:06;;;;;;;11.60;6.72;;;16.10;44.20;;;;;;5095248;28;20028;-64
2021/03/01 03:50:33;;;;;;;13.02;6.30;;;16.10;44.10;;;;;;5094785;28;20012;-64
2021/03/01 03:53:04;;;;;;;11.25;6.57;;;16.10;44.10;;;;;;5094447;28;20115;-64
2021/03/01 03:55:32;;;;;;;12.35;6.93;;;16.10;44.10;;;;;;5094247;28;20115;-64
2021/03/01 03:58:00;;;;;;;13.20;6.40;;;16.10;44.10;;;;;;5094265;28;20035;-64
2021/03/01 04:00:32;;;;;;;12.93;6.38;;;16.10;44.10;;;;;;5094513;28;20036;-64
2021/03/01 04:03:00;;;;;;;12.20;6.63;;;16.10;44.10;;;;;;5094689;28;20028;-64
2021/03/01 04:05:27;;;;;;;12.55;6.78;;;16.10;44.10;;;;;;5094239;28;20056;-64
2021/03/01 04:07:55;;;;;;;13.32;7.45;;;16.10;44.10;;;;;;5092947;28;20108;-64
2021/03/01 04:10:22;;;;;;;14.25;7.55;;;16.10;44.10;;;;;;5094246;28;20020;-64
2021/03/01 04:12:51;;;;;;;13.60;7.22;;;16.10;44.10;;;;;;5094221;28;20039;-64
2021/03/01 04:15:17;;;;;;;15.07;8.07;;;16.10;44.10;;;;;;5094525;28;20024;-64
2021/03/01 04:17:45;;;;;;;13.63;7.22;;;16.10;44.10;;;;;;5094100;28;20055;-64
2021/03/01 04:20:12;;;;;;;13.75;7.97;;;16.10;44.00;;;;;;5094209;28;20502;-64
2021/03/01 04:22:40;;;;;;;15.95;7.95;;;16.10;44.00;;;;;;5093866;28;20059;-64
2021/03/01 04:25:07;;;;;;;15.45;8.45;;;16.10;44.10;;;;;;5093946;28;20468;-64
2021/03/01 04:27:37;;;;;;;16.48;7.95;;;16.10;44.10;;;;;;5093665;28;20030;-64
2021/03/01 04:30:08;;;;;;;16.05;8.27;;;16.10;44.10;;;;;;5094164;28;20031;-64
2021/03/01 04:32:41;;;;;;;14.15;7.53;;;16.10;44.10;;;;;;5094121;28;20424;-64
2021/03/01 04:35:08;;;;;;;15.02;7.78;;;16.10;44.00;;;;;;5092949;28;20024;-64
2021/03/01 04:37:34;;;;;;;14.90;8.63;;;16.10;44.10;;;;;;5094035;28;20607;-65
2021/03/01 04:40:00;;;;;;;15.73;8.70;;;16.10;44.00;;;;;;5094052;28;20032;-64
2021/03/01 04:42:32;;;;;;;15.63;8.48;;;16.10;44.00;;;;;;5093928;28;20025;-64
2021/03/01 04:44:58;;;;;;;16.10;8.90;;;16.10;44.00;;;;;;5094117;28;20024;-64
2021/03/01 04:47:25;;;;;;;15.68;8.30;;;16.10;44.00;;;;;;5094043;28;20028;-64
2021/03/01 04:49:52;;;;;;;16.33;9.30;;;16.10;44.00;;;;;;5094330;28;20020;-64
2021/03/01 04:52:18;;;;;;;16.27;8.77;;;16.10;44.10;;;;;;5093818;28;20035;-64
2021/03/01 04:54:44;;;;;;;18.10;9.00;;;16.10;44.00;;;;;;5093860;28;20020;-64
2021/03/01 04:57:12;;;;;;;16.10;9.05;;;16.10;44.10;;;;;;5093396;28;20039;-64
2021/03/01 04:59:39;;;;;;;20.08;9.63;;;16.10;44.00;;;;;;5093778;28;20036;-64
2021/03/01 05:02:05;;;;;;;15.85;8.45;;;16.10;44.00;;;;;;5093732;28;20609;-65
2021/03/01 05:04:31;;;;;;;16.65;9.23;;;16.10;44.00;;;;;;5093643;28;20103;-64
2021/03/01 05:06:56;;;;;;;15.77;8.80;;;16.10;44.00;;;;;;5093862;28;20107;-64
2021/03/01 05:09:22;;;;;;;16.27;8.68;;;16.10;44.00;;;;;;5092349;28;20062;-64
2021/03/01 05:11:48;;;;;;;17.42;8.95;;;16.10;44.00;;;;;;5093313;28;20028;-64
2021/03/01 05:14:14;;;;;;;15.52;8.02;;;16.10;44.00;;;;;;5093825;28;20539;-64
2021/03/01 05:16:39;;;;;;;15.68;8.35;;;16.10;44.10;;;;;;5093488;28;20032;-64
2021/03/01 05:19:05;;;;;;;15.07;8.63;;;16.10;44.00;;;;;;5093468;28;20032;-64
2021/03/01 05:21:31;;;;;;;14.90;8.27;;;16.10;44.00;;;;;;5093237;28;20447;-64
2021/03/01 05:23:56;;;;;;;13.85;7.97;;;16.10;44.00;;;;;;5093599;28;20032;-64
2021/03/01 05:26:22;;;;;;;16.10;9.07;;;16.10;44.10;;;;;;5093553;28;20029;-64
2021/03/01 05:28:48;;;;;;;14.45;7.93;;;16.10;44.00;;;;;;5091814;28;20161;-64
2021/03/01 05:31:14;;;;;;;14.68;7.88;;;16.20;44.00;;;;;;5093308;28;20115;-64
2021/03/01 05:33:40;;;;;;;15.55;8.40;;;16.20;44.00;;;;;;5093516;28;20036;-64
2021/03/01 05:36:06;;;;;;;17.67;9.15;;;16.20;44.00;;;;;;5093390;28;20524;-64
2021/03/01 05:38:32;;;;;;;15.63;8.07;;;16.20;43.90;;;;;;5093352;28;20103;-64
2021/03/01 05:41:00;;;;;;;14.32;7.35;;;16.20;43.90;;;;;;5093335;28;20044;-64
2021/03/01 05:43:27;;;;;;;12.88;7.60;;;16.20;43.90;;;;;;5093359;28;20375;-64
2021/03/01 05:45:53;;;;;;;14.43;8.15;;;16.20;43.90;;;;;;5093320;28;20024;-64
2021/03/01 05:48:21;;;;;;;15.65;8.85;;;16.20;44.00;;;;;;5093308;28;20025;-64
2021/03/01 05:50:56;;;;;;;15.48;8.43;;;16.20;43.90;;;;;;5093207;28;20077;-64
2021/03/01 05:53:28;;;;;;;14.35;8.15;;;16.20;43.90;;;;;;5093219;28;20031;-64
2021/03/01 05:55:57;;;;;;;13.65;7.75;;;16.20;43.90;;;;;;5094589;28;20020;-64
2021/03/01 05:58:23;;;;;;;15.93;8.52;;;16.30;43.90;;;;;;5096854;28;20032;-64
2021/03/01 06:00:49;;;;;;;12.57;7.13;;;16.20;43.80;;;;;;5096503;28;20028;-64
2021/03/01 06:03:15;;;;;;;14.68;7.50;;;16.30;43.70;;;;;;5095709;28;20069;-64
2021/03/01 06:05:42;;;;;;;14.02;7.10;;;16.30;43.80;;;;;;5096918;28;20028;-64
2021/03/01 06:08:09;;;;;;;14.70;8.15;;;16.30;43.80;;;;;;5096680;28;20024;-64
2021/03/01 06:10:35;;;;;;;14.85;8.50;;;16.30;43.80;;;;;;5096290;28;20457;-64
2021/03/01 06:13:00;;;;;;;13.55;7.88;;;16.30;43.80;;;;;;5096353;28;20028;-64
2021/03/01 06:15:27;;;;;;;12.95;7.20;;;16.30;43.80;;;;;;5096889;28;20024;-64
2021/03/01 06:18:07;;;;;;;15.23;7.65;;;16.30;43.80;;;;;;5096753;28;20059;-64
2021/03/01 06:20:33;;;;;;;13.05;6.90;;;16.30;43.70;;;;;;5095750;28;20036;-64
2021/03/01 06:23:00;;;;;;;13.00;7.32;;;16.30;43.70;;;;;;5096924;28;20020;-64
2021/03/01 06:25:25;;;;;;;11.85;6.47;;;16.30;43.60;;;;;;5096038;28;20020;-64
2021/03/01 06:27:55;;;;;;;12.02;7.00;;;16.30;43.70;;;;;;5095920;28;20033;-64
2021/03/01 06:30:23;;;;;;;12.38;6.82;;;16.30;43.70;;;;;;5095719;28;20119;-64
2021/03/01 06:33:13;;;;;;;11.95;6.30;;;16.30;43.60;;;;;;5095055;28;20041;-64
2021/03/01 06:35:51;;;;;;;11.95;6.90;;;16.30;43.70;;;;;;5096162;28;20086;-64
2021/03/01 06:38:21;;;;;;;14.05;7.40;;;16.30;43.70;;;;;;5096115;28;20028;-64
2021/03/01 06:41:09;;;;;;;12.63;6.90;;;16.30;43.50;;;;;;5095479;28;20032;-64
2021/03/01 06:43:35;;;;;;;15.27;7.38;;;16.30;43.70;;;;;;5096222;28;20023;-64
2021/03/01 06:46:14;;;;;;;12.40;6.68;;;16.30;43.60;;;;;;5095407;28;20077;-64
2021/03/01 06:48:42;;;;;;;12.80;6.60;;;16.40;43.70;;;;;;5096019;28;20107;-64
2021/03/01 06:51:09;;;;;;;12.40;6.88;;;16.40;43.60;;;;;;5095585;28;20467;-64
2021/03/01 06:53:35;;;;;;;13.95;7.07;;;16.40;43.70;;;;;;5095779;28;20024;-64
2021/03/01 06:56:12;;;;;;;12.60;6.70;;;16.40;43.50;;;;;;5095168;28;20034;-64
2021/03/01 06:58:46;;;;;;;12.88;7.68;;;16.40;43.60;;;;;;5094388;28;20395;-64
2021/03/01 07:01:17;;;;;;;12.32;6.38;;;16.40;43.50;;;;;;5095251;28;20044;-64
2021/03/01 07:03:48;;;;;;;12.20;6.70;;;16.40;43.60;;;;;;5095556;28;20024;-64
2021/03/01 07:06:14;;;;;;;11.10;6.35;;;16.30;43.50;;;;;;5094974;28;20539;-64
2021/03/01 07:08:48;;;;;;;13.13;7.25;;;16.40;43.50;;;;;;5095306;28;20119;-64
2021/03/01 07:11:31;;;;;;;11.25;6.13;;;16.40;43.50;;;;;;5095369;28;20016;-64
2021/03/01 07:14:05;;;;;;;12.57;6.38;;;16.40;43.40;;;;;;5095255;28;20031;-64
2021/03/01 07:16:41;;;;;;;12.50;6.57;;;16.30;43.50;;;;;;5095143;28;20031;-65
2021/03/01 07:19:27;;;;;;;12.85;6.20;;;16.40;43.40;;;;;;5094788;28;20032;-64
2021/03/01 07:21:55;;;;;;;11.13;6.38;;;16.40;43.30;;;;;;5090107;28;20107;-63
2021/03/01 07:24:25;;;;;;;11.90;6.25;;;16.40;43.50;;;;;;5082185;28;20107;-63
2021/03/01 07:26:54;;;;;;;14.23;7.22;;;16.40;43.40;;;;;;5076948;28;20035;-63
2021/03/01 07:29:21;;;;;;;12.27;5.85;;;16.40;43.40;;;;;;5086209;28;20046;-63
2021/03/01 07:32:01;;;;;;;12.15;6.72;;;16.50;43.40;;;;;;5073401;28;20052;-63
2021/03/01 07:34:27;;;;;;;12.95;6.75;;;16.50;43.40;;;;;;5073826;28;20166;-63
2021/03/01 07:36:54;;;;;;;10.40;6.13;;;16.50;43.40;;;;;;5073493;28;20067;-63
2021/03/01 07:39:19;;;;;;;13.80;6.57;;;16.60;43.30;;;;;;5093011;28;20028;-63
2021/03/01 07:41:46;;;;;;;11.55;6.32;;;16.60;43.30;;;;;;5077028;28;20548;-63
2021/03/01 07:44:13;;;;;;;11.93;6.35;;;16.60;43.20;;;;;;5073244;28;20024;-64
2021/03/01 07:46:46;;;;;;;11.68;6.25;;;16.70;43.20;;;;;;5073033;28;20029;-63
2021/03/01 07:49:42;;;;;;;11.65;6.38;;;16.70;43.20;;;;;;5072906;28;20465;-64
2021/03/01 07:52:28;;;;;;;10.70;6.15;;;16.70;43.10;;;;;;5073367;28;20059;-63
2021/03/01 07:55:03;;;;;;;11.77;6.35;;;16.80;43.10;;;;;;5093163;28;20502;-63
2021/03/01 07:57:30;;;;;;;12.48;6.20;;;16.80;43.00;;;;;;5093443;28;20024;-63
2021/03/01 07:59:57;;;;;;;11.90;6.55;;;16.80;43.00;;;;;;5093132;28;20032;-63
2021/03/01 08:02:33;;;;;;;13.70;6.35;;;16.90;43.00;;;;;;5093009;28;20020;-63
2021/03/01 08:05:09;;;;;;;11.90;6.82;;;16.90;43.00;;;;;;5093292;28;20028;-63
2021/03/01 08:07:43;;;;;;;11.40;5.95;;;17.00;43.00;;;;;;5092903;28;20353;-63
2021/03/01 08:10:36;;;;;;;11.73;6.38;;;17.00;42.90;;;;;;5094074;28;20073;-64
2021/03/01 08:13:04;;;;;;;11.77;6.60;;;17.00;42.90;;;;;;5093253;28;20112;-63
2021/03/01 08:15:42;;;;;;;11.27;6.32;;;17.00;42.90;;;;;;5093321;28;20399;-63
2021/03/01 08:18:09;;;;;;;11.00;6.50;;;17.00;42.90;;;;;;5076910;28;20052;-63
2021/03/01 08:20:37;;;;;;;10.32;5.90;;;17.00;42.90;;;;;;5074106;28;20044;-63
2021/03/01 08:25:44;;;;;;;11.15;6.18;;;17.00;42.90;;;;;;5072840;28;20031;-63
2021/03/01 08:28:15;;;;;;;11.20;5.97;;;17.00;42.80;;;;;;5072718;28;20029;-63
2021/03/01 08:30:48;;;;;;;12.48;6.63;;;17.10;42.90;;;;;;5073004;28;20028;-64
2021/03/01 08:33:15;;;;;;;14.00;6.85;;;17.10;42.80;;;;;;5072503;28;20379;-63
2021/03/01 08:35:53;;;;;;;10.35;5.80;;;17.10;42.80;;;;;;5072607;28;20048;-63
2021/03/01 08:38:41;;;;;;;11.93;6.25;;;17.10;42.80;;;;;;5083762;28;20845;-63
2021/03/01 08:41:09;;;;;;;11.65;5.97;;;17.20;42.80;;;;;;5093079;28;20028;-64
2021/03/01 08:43:42;;;;;;;10.65;6.05;;;17.20;42.80;;;;;;5091451;28;20080;-63
2021/03/01 08:46:26;;;;;;;11.95;6.15;;;17.20;42.70;;;;;;5092255;28;20479;-64
2021/03/01 08:48:54;;;;;;;12.45;6.97;;;17.30;42.50;;;;;;5092492;28;20028;-64
2021/03/01 08:51:21;;;;;;;11.35;6.38;;;17.30;42.60;;;;;;5092121;28;20035;-64
2021/03/01 08:53:51;;;;;;;13.40;6.43;;;17.20;42.60;;;;;;5092431;28;20460;-64
2021/03/01 08:56:24;;;;;;;11.30;6.03;;;17.30;42.60;;;;;;5092359;28;20089;-64
2021/03/01 08:58:49;;;;;;;12.02;6.00;;;17.30;42.60;;;;;;5092296;28;20070;-64
2021/03/01 09:01:15;;;;;;;11.07;6.30;;;17.30;42.60;;;;;;5092246;28;20426;-64
2021/03/01 09:03:43;;;;;;;13.68;6.72;;;17.30;42.50;;;;;;5092433;28;20067;-64
2021/03/01 09:06:13;;;;;;;11.90;6.25;;;17.30;42.60;;;;;;5092024;28;20043;-64
2021/03/01 09:08:44;;;;;;;12.75;6.07;;;17.30;42.60;;;;;;5092325;28;20027;-64
2021/03/01 09:11:16;;;;;;;13.23;6.97;;;17.40;42.60;;;;;;5092794;28;20160;-64
2021/03/01 09:13:44;;;;;;;11.68;6.32;;;17.40;42.60;;;;;;5094632;28;20020;-65
2021/03/01 09:16:13;;;;;;;10.75;6.47;;;17.40;42.50;;;;;;5094013;28;20115;-65
2021/03/01 09:18:48;;;;;;;13.30;6.45;;;17.40;42.50;;;;;;5072353;28;20080;-64
2021/03/01 09:21:16;;;;;;;11.65;6.88;;;17.40;42.50;;;;;;5071626;28;20033;-64
2021/03/01 09:23:43;;;;;;;14.07;6.90;;;17.40;42.40;;;;;;5072083;28;20175;-64
2021/03/01 09:26:19;;;;;;;13.23;6.40;;;17.50;42.50;;;;;;5072311;28;20036;-63
2021/03/01 09:28:45;;;;;;;13.15;7.55;;;17.50;42.40;;;;;;5072610;28;20074;-64
2021/03/01 09:31:13;;;;;;;13.35;7.43;;;17.50;42.40;;;;;;5075855;28;20024;-64
2021/03/01 09:33:40;;;;;;;12.95;6.95;;;17.50;42.40;;;;;;5075882;28;20499;-64
2021/03/01 09:36:07;;;;;;;13.00;7.07;;;17.50;42.40;;;;;;5075510;28;20062;-64
2021/03/01 09:38:34;;;;;;;14.27;7.60;;;17.50;42.30;;;;;;5074697;28;20388;-65
2021/03/01 09:41:02;;;;;;;13.23;7.10;;;17.50;42.30;;;;;;5075191;28;20040;-65
2021/03/01 09:43:28;;;;;;;11.68;6.60;;;17.50;42.30;;;;;;5073660;28;20020;-65
2021/03/01 09:45:55;;;;;;;14.25;7.75;;;17.50;42.20;;;;;;5094704;28;20454;-65
2021/03/01 09:48:21;;;;;;;13.73;8.00;;;17.50;42.30;;;;;;5095078;28;20697;-66
2021/03/01 09:50:48;;;;;;;12.07;6.97;;;17.60;42.30;;;;;;5095098;28;20032;-65
2021/03/01 09:53:18;;;;;;;15.80;8.18;;;17.60;42.20;;;;;;5090732;28;20074;-65
2021/03/01 09:55:44;;;;;;;13.10;7.38;;;17.60;42.10;;;;;;5094434;28;20028;-66
2021/03/01 09:58:24;;;;;;;12.82;7.18;;;17.60;42.10;;;;;;5094602;28;20028;-65
2021/03/01 10:00:51;;;;;;;15.40;7.90;;;17.60;42.30;;;;;;5094690;28;20085;-66
2021/03/01 10:03:16;;;;;;;14.73;7.82;;;17.70;42.20;;;;;;5094954;28;20068;-67
2021/03/01 10:05:49;;;;;;;11.15;6.55;;;17.70;42.20;;;;;;5094462;28;20395;-65
2021/03/01 10:08:24;;;;;;;13.98;6.78;;;17.70;42.20;;;;;;5094390;28;20414;-65
2021/03/01 10:10:52;;;;;;;12.38;7.10;;;17.80;42.10;;;;;;5094997;28;20051;-66
2021/03/01 10:13:32;;;;;;;13.48;6.82;;;17.80;42.10;;;;;;5094629;28;20073;-63
2021/03/01 10:15:58;;;;;;;11.93;6.40;;;17.80;42.00;;;;;;5095131;28;20106;-63
2021/03/01 10:18:27;;;;;;;12.80;7.03;;;17.90;42.00;;;;;;5076893;28;20054;-64
2021/03/01 10:21:04;;;;;;;13.15;7.03;;;18.00;41.90;;;;;;5074864;28;20090;-65
2021/03/01 10:23:39;;;;;;;11.35;6.50;;;18.00;41.80;;;;;;5098804;28;20023;-64
2021/03/01 10:26:19;;;;;;;12.30;6.70;;;18.00;41.90;;;;;;5116215;28;20020;-65
2021/03/01 10:28:56;;;;;;;12.43;7.05;;;18.10;41.60;;;;;;5102400;28;20031;-64
2021/03/01 10:31:25;;;;;;;14.73;7.57;;;18.10;41.70;;;;;;5095381;28;20031;-64
2021/03/01 10:34:06;;;;;;;13.38;7.10;;;18.20;41.50;;;;;;5095267;28;20425;-64
2021/03/01 10:36:57;;;;;;;14.43;7.40;;;18.20;41.60;;;;;;5095491;28;20507;-64
2021/03/01 10:39:30;;;;;;;12.23;6.80;;;18.20;41.60;;;;;;5095384;28;20020;-64
2021/03/01 10:41:58;;;;;;;13.43;7.22;;;18.30;41.30;;;;;;5094741;28;20467;-66
2021/03/01 10:44:34;;;;;;;13.65;8.10;;;18.30;41.40;;;;;;5097592;28;20024;-65
2021/03/01 10:47:18;;;;;;;13.20;7.43;;;18.30;41.30;;;;;;5103468;28;20027;-65
2021/03/01 10:49:45;;;;;;;13.52;7.60;;;18.40;41.30;;;;;;5103991;28;20048;-65
2021/03/01 10:52:13;;;;;;;14.88;7.72;;;18.40;41.20;;;;;;5103610;28;20028;-65
2021/03/01 10:54:39;;;;;;;14.07;7.60;;;18.40;41.20;;;;;;5104443;28;20028;-65
2021/03/01 10:57:06;;;;;;;13.63;7.47;;;18.40;41.10;;;;;;5103576;28;20048;-66
2021/03/01 10:59:32;;;;;;;12.70;7.03;;;18.50;41.20;;;;;;5097584;28;20117;-66
2021/03/01 11:01:58;;;;;;;14.55;7.72;;;18.50;41.20;;;;;;5100777;28;20043;-66
2021/03/01 11:04:23;;;;;;;12.82;6.80;;;18.50;41.10;;;;;;5098419;28;20460;-65
2021/03/01 11:06:50;;;;;;;11.88;6.88;;;18.50;41.00;;;;;;5096337;28;20089;-65
2021/03/01 11:09:16;;;;;;;12.23;7.63;;;18.50;41.00;;;;;;5094642;28;20035;-65
2021/03/01 11:11:43;;;;;;;14.00;7.78;;;18.50;40.90;;;;;;5095440;28;20039;-64
2021/03/01 11:14:10;;;;;;;13.40;7.43;;;18.60;41.00;;;;;;5095250;28;20020;-65
2021/03/01 11:16:36;;;;;;;13.50;7.60;;;18.60;40.90;;;;;;5095430;28;20437;-65
2021/03/01 11:19:03;;;;;;;13.77;7.50;;;18.60;40.90;;;;;;5095444;28;20085;-65
2021/03/01 11:21:28;;;;;;;14.70;7.85;;;18.70;40.70;;;;;;5094492;28;20116;-65
2021/03/01 11:23:54;;;;;;;12.75;7.43;;;18.70;40.70;;;;;;5090371;28;20066;-66
2021/03/01 11:26:20;;;;;;;15.98;7.60;;;18.80;40.60;;;;;;5093426;28;20040;-66
2021/03/01 11:28:46;;;;;;;13.77;7.22;;;18.80;40.70;;;;;;5091752;28;20032;-65
2021/03/01 11:31:12;;;;;;;16.60;7.82;;;18.80;40.70;;;;;;5087474;28;20028;-65
2021/03/01 11:33:39;;;;;;;12.90;6.70;;;18.80;40.80;;;;;;5073796;28;20135;-65
2021/03/01 11:36:05;;;;;;;14.45;8.00;;;18.80;40.70;;;;;;5085785;28;20058;-65
2021/03/01 11:38:31;;;;;;;14.85;7.50;;;18.80;40.60;;;;;;5093594;28;20364;-65
2021/03/01 11:40:58;;;;;;;14.75;7.57;;;18.80;40.70;;;;;;5092122;28;20043;-65
2021/03/01 11:43:24;;;;;;;16.08;7.68;;;18.90;40.60;;;;;;5093619;28;20114;-65
2021/03/01 11:45:49;;;;;;;14.30;7.68;;;19.00;40.50;;;;;;5093636;28;20028;-65
2021/03/01 11:48:15;;;;;;;15.45;8.15;;;18.90;40.50;;;;;;5081000;28;20074;-65
2021/03/01 11:50:43;;;;;;;14.60;7.60;;;19.00;40.50;;;;;;5073203;28;20036;-66
2021/03/01 11:53:09;;;;;;;13.25;7.68;;;19.00;40.40;;;;;;5071590;28;20484;-67
2021/03/01 11:55:35;;;;;;;13.52;7.40;;;19.10;40.40;;;;;;5073231;28;20024;-65
2021/03/01 11:58:01;;;;;;;14.07;7.45;;;19.10;40.40;;;;;;5073320;28;20030;-65
2021/03/01 12:00:27;;;;;;;14.48;8.38;;;19.10;40.30;;;;;;5072759;28;20039;-65
2021/03/01 12:02:53;;;;;;;15.23;8.38;;;19.20;40.30;;;;;;5072886;28;20380;-66
2021/03/01 12:05:18;;;;;;;15.93;7.70;;;19.20;40.30;;;;;;5071627;28;20443;-65
2021/03/01 12:07:44;;;;;;;14.55;7.32;;;19.20;40.20;;;;;;5088803;28;20034;-65
2021/03/01 12:10:11;;;;;;;13.88;7.20;;;19.30;40.20;;;;;;5092963;28;20047;-65
2021/03/01 12:12:36;;;;;;;15.52;7.95;;;19.30;40.10;;;;;;5093233;28;20096;-66
2021/03/01 12:15:03;;;;;;;15.80;8.45;;;19.30;40.10;;;;;;5093146;28;20067;-65
2021/03/01 12:17:29;;;;;;;13.02;7.53;;;19.40;40.10;;;;;;5091565;28;20446;-67
2021/03/01 12:19:54;;;;;;;15.68;7.97;;;19.40;40.10;;;;;;5092630;28;20024;-65
2021/03/01 12:22:20;;;;;;;15.43;7.95;;;19.50;40.10;;;;;;5092615;28;20060;-64
2021/03/01 12:24:46;;;;;;;16.33;7.90;;;19.50;40.10;;;;;;5080156;28;20095;-65
2021/03/01 12:27:12;;;;;;;15.50;7.63;;;19.50;40.00;;;;;;5072796;28;20024;-65
2021/03/01 12:29:37;;;;;;;13.00;7.05;;;19.50;40.00;;;;;;5072331;28;20020;-65
2021/03/01 12:32:03;;;;;;;13.57;6.70;;;19.50;40.10;;;;;;5072653;28;20103;-65
2021/03/01 12:34:28;;;;;;;16.38;8.25;;;19.50;40.00;;;;;;5073223;28;20017;-65
2021/03/01 12:36:54;;;;;;;12.43;7.45;;;19.50;40.00;;;;;;5075558;28;20468;-65
2021/03/01 12:39:20;;;;;;;13.68;7.72;;;19.60;40.10;;;;;;5092523;28;20032;-65
2021/03/01 12:41:45;;;;;;;13.57;6.88;;;19.60;40.00;;;;;;5092661;28;20115;-65
2021/03/01 12:44:11;;;;;;;13.32;7.22;;;19.60;40.00;;;;;;5092912;28;20024;-65
2021/03/01 12:46:37;;;;;;;13.05;7.22;;;19.60;39.90;;;;;;5092729;28;20383;-64
2021/03/01 12:49:02;;;;;;;16.83;7.60;;;19.60;40.00;;;;;;5092473;28;20103;-65